Time;durP1;ratioP1;P1;durP2;ratioP2;P2;SDS_P1;SDS_P2;PMS_P1;PMS_P2;Temp;Humidity;BMP_temperature;BMP_pressure;BME280_temperature;BME280_humidity;BME280_pressure;Samples;Min_cycle;Max_cycle;Signal;HPM_P1;HPM_P2
2023/05/11 00:01:50;;;;;;;16.42;10.57;;;11.20;99.50;;;;;;5053891;28;20025;-75
2023/05/11 00:04:16;;;;;;;15.35;10.75;;;11.20;99.50;;;;;;5047228;28;20029;-75
2023/05/11 00:06:41;;;;;;;21.63;11.73;;;11.20;99.40;;;;;;5048971;28;20099;-75
2023/05/11 00:09:08;;;;;;;14.73;10.40;;;11.10;99.30;;;;;;5047955;28;20469;-75
2023/05/11 00:11:34;;;;;;;16.45;10.85;;;11.10;99.50;;;;;;5048675;28;20025;-75
2023/05/11 00:14:00;;;;;;;14.65;10.50;;;11.10;99.50;;;;;;5047643;28;20075;-75
2023/05/11 00:16:25;;;;;;;16.70;11.43;;;11.10;99.50;;;;;;5056643;28;20485;-75
2023/05/11 00:18:50;;;;;;;17.23;10.40;;;11.10;99.40;;;;;;5051209;28;20103;-75
2023/05/11 00:21:16;;;;;;;14.40;9.88;;;11.10;99.40;;;;;;5058669;28;20024;-75
2023/05/11 00:23:41;;;;;;;14.73;9.98;;;11.10;99.40;;;;;;5055353;28;20020;-75
2023/05/11 00:26:07;;;;;;;22.42;11.50;;;11.10;99.40;;;;;;5060888;28;20045;-75
2023/05/11 00:28:32;;;;;;;15.23;10.82;;;11.10;99.30;;;;;;5048094;28;20071;-75
2023/05/11 00:30:58;;;;;;;15.23;10.35;;;11.00;99.30;;;;;;5054117;28;20036;-75
2023/05/11 00:33:23;;;;;;;14.45;10.48;;;11.00;99.30;;;;;;5043753;28;20091;-75
2023/05/11 00:35:49;;;;;;;14.02;9.32;;;11.00;99.40;;;;;;5046585;28;20024;-75
2023/05/11 00:38:15;;;;;;;13.30;9.55;;;11.00;99.40;;;;;;5053942;28;20536;-75
2023/05/11 00:40:41;;;;;;;14.73;10.18;;;11.00;99.40;;;;;;5057457;28;20020;-75
2023/05/11 00:43:06;;;;;;;16.67;10.00;;;11.00;99.40;;;;;;5051139;28;20035;-75
2023/05/11 00:45:33;;;;;;;17.38;10.30;;;11.00;99.40;;;;;;5047168;28;20032;-75
2023/05/11 00:47:59;;;;;;;16.08;11.32;;;11.00;99.40;;;;;;5045962;28;20099;-75
2023/05/11 00:50:25;;;;;;;18.23;11.02;;;11.00;99.40;;;;;;5053353;28;20457;-75
2023/05/11 00:52:50;;;;;;;18.27;11.75;;;11.00;99.40;;;;;;5050261;28;20025;-75
2023/05/11 00:55:18;;;;;;;16.63;11.50;;;11.00;99.40;;;;;;5049163;28;20048;-75
2023/05/11 00:57:44;;;;;;;18.15;11.57;;;11.00;99.40;;;;;;5050374;28;20440;-75
2023/05/11 01:00:10;;;;;;;18.05;11.57;;;11.00;99.40;;;;;;5054309;28;20124;-75
2023/05/11 01:02:36;;;;;;;17.15;11.20;;;11.00;99.40;;;;;;5048900;28;20020;-75
2023/05/11 01:05:02;;;;;;;18.45;10.73;;;11.00;99.40;;;;;;5046954;28;20029;-75
2023/05/11 01:07:37;;;;;;;15.82;10.85;;;10.90;99.30;;;;;;5050189;28;20020;-75
2023/05/11 01:10:16;;;;;;;17.65;10.70;;;10.90;99.40;;;;;;5056265;28;20421;-75
2023/05/11 01:13:14;;;;;;;15.75;10.27;;;10.90;99.40;;;;;;5048904;28;20480;-75
2023/05/11 01:15:50;;;;;;;17.50;11.15;;;10.90;99.40;;;;;;5051103;28;20616;-75
2023/05/11 01:18:37;;;;;;;17.17;11.07;;;10.80;99.30;;;;;;5046879;28;20025;-75
2023/05/11 01:21:04;;;;;;;17.52;11.52;;;10.90;99.50;;;;;;5047471;28;20024;-75
2023/05/11 01:23:54;;;;;;;17.15;11.18;;;10.90;99.50;;;;;;5045012;28;20033;-75
2023/05/11 01:26:38;;;;;;;18.52;11.77;;;10.90;99.50;;;;;;5045391;28;20064;-75
2023/05/11 01:29:34;;;;;;;16.30;10.90;;;10.90;99.50;;;;;;5046407;28;20197;-75
2023/05/11 01:32:07;;;;;;;17.73;11.10;;;10.90;99.40;;;;;;5044842;28;20037;-75
2023/05/11 01:34:36;;;;;;;18.58;11.98;;;11.00;99.60;;;;;;5043481;28;20036;-75
2023/05/11 01:37:11;;;;;;;18.88;12.27;;;10.90;99.40;;;;;;5047960;28;20326;-75
2023/05/11 01:39:53;;;;;;;16.85;11.20;;;11.00;99.40;;;;;;5046907;28;20021;-75
2023/05/11 01:42:35;;;;;;;20.52;12.23;;;10.90;99.40;;;;;;5047035;28;20416;-75
2023/05/11 01:45:02;;;;;;;16.30;11.90;;;11.00;99.40;;;;;;5044039;28;20400;-75
2023/05/11 01:47:29;;;;;;;19.55;12.43;;;10.90;99.30;;;;;;5043210;28;20032;-75
2023/05/11 01:49:56;;;;;;;23.13;14.57;;;10.90;99.40;;;;;;5049229;28;20037;-75
2023/05/11 01:52:23;;;;;;;24.15;15.07;;;11.00;99.30;;;;;;5038205;28;20531;-75
2023/05/11 01:54:51;;;;;;;28.65;16.08;;;11.00;99.40;;;;;;5046302;28;20048;-75
2023/05/11 01:57:18;;;;;;;24.80;15.68;;;10.90;99.30;;;;;;5048456;28;20083;-75
2023/05/11 01:59:44;;;;;;;29.45;16.55;;;10.90;99.30;;;;;;5046014;28;20515;-75
2023/05/11 02:02:11;;;;;;;25.88;15.68;;;10.90;99.30;;;;;;5043381;28;20135;-75
2023/05/11 02:04:38;;;;;;;25.83;14.77;;;11.00;99.30;;;;;;5047409;28;20455;-75
2023/05/11 02:07:07;;;;;;;22.42;14.43;;;10.90;99.20;;;;;;5048025;28;20087;-75
2023/05/11 02:09:33;;;;;;;23.88;15.20;;;10.90;99.30;;;;;;5055889;28;20070;-75
2023/05/11 02:12:00;;;;;;;24.77;14.98;;;10.90;99.30;;;;;;5043694;28;20028;-75
2023/05/11 02:14:28;;;;;;;32.42;18.15;;;10.90;99.20;;;;;;5044601;28;20059;-75
2023/05/11 02:16:55;;;;;;;27.42;16.77;;;10.80;99.00;;;;;;5048721;28;20871;-75
2023/05/11 02:19:20;;;;;;;30.02;17.52;;;10.80;99.10;;;;;;5044060;28;20104;-75
2023/05/11 02:21:48;;;;;;;29.30;18.13;;;10.90;99.30;;;;;;5050476;28;20115;-75
2023/05/11 02:24:14;;;;;;;28.70;17.60;;;11.00;99.30;;;;;;5051595;28;20045;-75
2023/05/11 02:26:40;;;;;;;31.13;17.63;;;10.80;98.90;;;;;;5050945;28;20124;-75
2023/05/11 02:29:05;;;;;;;32.40;18.55;;;10.90;99.20;;;;;;5046064;28;20111;-75
2023/05/11 02:31:39;;;;;;;31.70;18.42;;;10.90;99.30;;;;;;5048757;28;20029;-75
2023/05/11 02:34:13;;;;;;;33.03;18.67;;;10.90;99.20;;;;;;5045179;28;20029;-75
2023/05/11 02:36:40;;;;;;;32.17;18.77;;;10.90;99.30;;;;;;5053934;28;20454;-75
2023/05/11 02:39:08;;;;;;;34.83;19.23;;;11.00;99.30;;;;;;5047122;28;20074;-76
2023/05/11 02:41:40;;;;;;;39.03;19.98;;;10.90;99.20;;;;;;5050727;28;20049;-75
2023/05/11 02:44:10;;;;;;;37.55;19.65;;;10.90;99.20;;;;;;5049177;28;20020;-75
2023/05/11 02:46:38;;;;;;;34.25;19.50;;;11.00;99.30;;;;;;5051621;28;20039;-76
2023/05/11 02:49:07;;;;;;;37.70;19.85;;;11.00;99.20;;;;;;5046743;28;20460;-76
2023/05/11 02:51:36;;;;;;;35.75;19.02;;;11.00;99.20;;;;;;5048971;28;20036;-76
2023/05/11 02:54:05;;;;;;;35.70;19.70;;;11.00;99.20;;;;;;5053231;28;20013;-76
2023/05/11 02:56:31;;;;;;;34.80;18.80;;;10.90;99.10;;;;;;5045253;28;20358;-76
2023/05/11 02:58:57;;;;;;;37.72;19.80;;;11.00;99.20;;;;;;5048388;28;20037;-75
2023/05/11 03:01:24;;;;;;;35.03;20.02;;;10.90;99.00;;;;;;5043730;28;20574;-76
2023/05/11 03:03:50;;;;;;;34.60;19.33;;;11.00;99.20;;;;;;5051593;28;20373;-75
2023/05/11 03:06:15;;;;;;;40.22;21.02;;;10.90;99.20;;;;;;5044512;28;20029;-76
2023/05/11 03:08:41;;;;;;;39.35;21.65;;;11.00;99.20;;;;;;5049077;28;20040;-75
2023/05/11 03:11:08;;;;;;;37.05;20.58;;;11.00;99.20;;;;;;5043730;28;20400;-76
2023/05/11 03:13:34;;;;;;;37.70;21.10;;;11.00;99.20;;;;;;5042564;28;20037;-75
2023/05/11 03:16:01;;;;;;;36.83;20.65;;;11.00;99.10;;;;;;5043846;28;20033;-75
2023/05/11 03:18:28;;;;;;;40.22;19.88;;;11.00;99.20;;;;;;5046219;28;20343;-76
2023/05/11 03:20:56;;;;;;;40.50;21.65;;;11.00;99.20;;;;;;5049122;28;20021;-75
2023/05/11 03:23:22;;;;;;;38.83;21.17;;;11.00;99.10;;;;;;5045429;28;20109;-75
2023/05/11 03:25:48;;;;;;;44.63;21.60;;;11.00;99.10;;;;;;5048860;28;20119;-75
2023/05/11 03:28:15;;;;;;;41.72;22.00;;;11.00;99.10;;;;;;5059124;28;20052;-75
2023/05/11 03:30:45;;;;;;;40.75;21.40;;;11.00;99.00;;;;;;5045760;28;20132;-75
2023/05/11 03:33:10;;;;;;;42.47;22.65;;;11.00;99.10;;;;;;5042881;28;20307;-76
2023/05/11 03:35:36;;;;;;;48.63;22.40;;;11.00;99.10;;;;;;5054514;28;20025;-76
2023/05/11 03:38:04;;;;;;;42.05;20.67;;;11.00;99.10;;;;;;5050413;28;20028;-76
2023/05/11 03:40:32;;;;;;;44.97;22.25;;;11.00;99.10;;;;;;5050588;28;20032;-76
2023/05/11 03:43:02;;;;;;;46.35;22.15;;;11.00;99.10;;;;;;5044885;28;20032;-77
2023/05/11 03:45:30;;;;;;;50.47;22.83;;;11.00;99.00;;;;;;5045143;28;20025;-76
2023/05/11 03:47:56;;;;;;;44.70;21.48;;;11.00;99.10;;;;;;5050503;28;20040;-76
2023/05/11 03:50:22;;;;;;;47.60;20.50;;;11.00;99.10;;;;;;5053838;28;20035;-76
2023/05/11 03:52:48;;;;;;;48.95;21.10;;;11.00;99.10;;;;;;5043622;28;20457;-77
2023/05/11 03:55:14;;;;;;;44.55;20.00;;;11.00;99.00;;;;;;5055151;28;20025;-76
2023/05/11 03:57:40;;;;;;;41.58;18.85;;;11.00;99.10;;;;;;5055861;28;20029;-76
2023/05/11 04:00:07;;;;;;;43.42;19.58;;;11.00;99.10;;;;;;5060123;28;20414;-76
2023/05/11 04:02:34;;;;;;;43.75;20.02;;;11.00;99.00;;;;;;5043084;28;20108;-76
2023/05/11 04:04:59;;;;;;;38.63;19.17;;;11.00;98.80;;;;;;5056479;28;20377;-76
2023/05/11 04:07:25;;;;;;;42.65;19.55;;;11.00;98.90;;;;;;5059986;28;20037;-76
2023/05/11 04:09:50;;;;;;;42.83;19.42;;;11.00;98.90;;;;;;5043091;28;20037;-76
2023/05/11 04:12:16;;;;;;;50.80;21.77;;;11.00;99.00;;;;;;5048130;28;20036;-77
2023/05/11 04:14:41;;;;;;;43.85;21.13;;;11.00;98.90;;;;;;5041574;28;20021;-77
2023/05/11 04:17:06;;;;;;;51.47;21.98;;;11.00;98.80;;;;;;5037225;28;20600;-78
2023/05/11 04:19:32;;;;;;;50.38;22.17;;;11.00;98.80;;;;;;5042457;28;20163;-76
2023/05/11 04:21:57;;;;;;;55.05;21.52;;;11.10;98.90;;;;;;5049485;28;20025;-76
2023/05/11 04:24:23;;;;;;;52.03;21.45;;;11.10;98.80;;;;;;5047859;28;20037;-76
2023/05/11 04:26:55;;;;;;;51.28;20.90;;;11.10;98.90;;;;;;5044426;28;20107;-76
2023/05/11 04:29:20;;;;;;;51.78;21.48;;;11.00;98.80;;;;;;5045536;28;20037;-77
2023/05/11 04:31:46;;;;;;;54.90;21.95;;;11.00;98.80;;;;;;5049883;28;20454;-76
2023/05/11 04:34:11;;;;;;;61.83;21.67;;;11.10;98.90;;;;;;5046565;28;20032;-75
2023/05/11 04:36:37;;;;;;;51.13;21.38;;;11.10;98.90;;;;;;5052190;28;20040;-75
2023/05/11 04:39:03;;;;;;;56.17;22.58;;;11.10;98.90;;;;;;5050411;28;20048;-75
2023/05/11 04:41:28;;;;;;;53.05;21.33;;;11.10;98.80;;;;;;5050024;28;20048;-75
2023/05/11 04:43:54;;;;;;;51.53;20.85;;;11.20;98.80;;;;;;5054540;28;20056;-75
2023/05/11 04:46:20;;;;;;;45.35;19.40;;;11.20;98.90;;;;;;5049734;28;20044;-76
2023/05/11 04:48:45;;;;;;;50.33;21.05;;;11.20;98.70;;;;;;5060287;28;20025;-75
2023/05/11 04:51:11;;;;;;;45.47;20.08;;;11.30;98.70;;;;;;5037193;28;20425;-75
2023/05/11 04:53:36;;;;;;;44.15;18.95;;;11.30;98.60;;;;;;5048286;28;20017;-75
2023/05/11 04:56:02;;;;;;;48.38;20.23;;;11.30;98.60;;;;;;5056244;28;20029;-75
2023/05/11 04:58:27;;;;;;;45.78;19.95;;;11.30;98.60;;;;;;5046933;28;20020;-75
2023/05/11 05:00:52;;;;;;;48.22;19.45;;;11.30;98.60;;;;;;5047533;28;20035;-75
2023/05/11 05:03:18;;;;;;;44.40;18.58;;;11.20;98.20;;;;;;5043317;28;20025;-75
2023/05/11 05:05:44;;;;;;;40.25;19.08;;;11.30;98.40;;;;;;5049180;28;20055;-75
2023/05/11 05:08:09;;;;;;;46.38;20.38;;;11.40;98.40;;;;;;5044005;28;20103;-75
2023/05/11 05:10:35;;;;;;;50.85;21.08;;;11.40;98.50;;;;;;5050960;28;20033;-75
2023/05/11 05:13:00;;;;;;;47.70;21.33;;;11.50;98.40;;;;;;5056141;28;20399;-75
2023/05/11 05:15:26;;;;;;;51.30;21.85;;;11.50;98.30;;;;;;5052100;28;20082;-75
2023/05/11 05:17:51;;;;;;;53.05;21.73;;;11.50;98.20;;;;;;5044395;28;20021;-75
2023/05/11 05:20:17;;;;;;;44.90;19.77;;;11.50;98.30;;;;;;5063044;28;20107;-75
2023/05/11 05:22:42;;;;;;;48.80;20.27;;;11.50;98.20;;;;;;5046683;28;20100;-75
2023/05/11 05:25:08;;;;;;;44.90;19.13;;;11.50;98.10;;;;;;5048444;28;20093;-75
2023/05/11 05:27:34;;;;;;;45.30;18.83;;;11.60;98.10;;;;;;5052657;28;20021;-75
2023/05/11 05:29:59;;;;;;;41.25;18.48;;;11.60;97.90;;;;;;5049120;28;20273;-75
2023/05/11 05:32:25;;;;;;;41.80;18.33;;;11.60;97.80;;;;;;5046495;28;20048;-76
2023/05/11 05:34:51;;;;;;;42.33;18.58;;;11.70;97.90;;;;;;5038318;28;20022;-76
2023/05/11 05:37:16;;;;;;;43.47;19.08;;;11.70;97.80;;;;;;5040752;28;20048;-76
2023/05/11 05:39:42;;;;;;;44.72;19.63;;;11.90;97.80;;;;;;5046570;28;20028;-76
2023/05/11 05:42:07;;;;;;;46.35;20.15;;;11.80;97.60;;;;;;5043441;28;20491;-76
2023/05/11 05:44:33;;;;;;;49.20;21.17;;;11.90;97.50;;;;;;5052905;28;20119;-75
2023/05/11 05:46:58;;;;;;;46.15;19.98;;;11.90;97.50;;;;;;5048382;28;20060;-76
2023/05/11 05:49:24;;;;;;;45.67;19.25;;;11.90;97.40;;;;;;5049983;28;20025;-76
2023/05/11 05:51:50;;;;;;;37.75;18.50;;;11.90;97.40;;;;;;5043142;28;20039;-76
2023/05/11 05:54:16;;;;;;;39.45;16.90;;;12.00;97.30;;;;;;5053000;28;20017;-76
2023/05/11 05:56:41;;;;;;;36.35;16.33;;;12.00;97.20;;;;;;5049977;28;20551;-76
2023/05/11 05:59:11;;;;;;;35.63;16.25;;;12.10;97.20;;;;;;5057101;28;20020;-76
2023/05/11 06:01:43;;;;;;;30.95;15.52;;;12.10;97.00;;;;;;5051087;28;20024;-76
2023/05/11 06:04:08;;;;;;;;;;;12.20;97.00;;;;;;5049458;28;20457;-76
2023/05/11 06:06:33;;;;;;;34.15;14.82;;;12.30;96.90;;;;;;5048148;28;19924;-76
2023/05/11 06:08:59;;;;;;;28.63;14.15;;;12.30;96.60;;;;;;5050844;28;20390;-76
2023/05/11 06:11:25;;;;;;;29.27;13.45;;;12.30;96.30;;;;;;5043672;28;20035;-76
2023/05/11 06:13:50;;;;;;;30.45;12.77;;;12.40;96.20;;;;;;5050788;28;20089;-76
2023/05/11 06:16:16;;;;;;;29.25;14.02;;;12.50;95.80;;;;;;5043125;28;20023;-76
2023/05/11 06:18:41;;;;;;;32.65;14.23;;;12.50;95.80;;;;;;5049903;28;20028;-76
2023/05/11 06:21:07;;;;;;;26.42;13.40;;;12.60;95.80;;;;;;5043135;28;20524;-76
2023/05/11 06:23:33;;;;;;;24.90;13.68;;;12.60;95.60;;;;;;5055047;28;20511;-76
2023/05/11 06:25:58;;;;;;;26.88;13.45;;;12.60;95.30;;;;;;5056985;28;20091;-76
2023/05/11 06:28:23;;;;;;;25.17;12.98;;;12.70;95.20;;;;;;5043227;28;20132;-76
2023/05/11 06:30:49;;;;;;;30.65;14.88;;;12.80;95.40;;;;;;5042609;28;20040;-76
2023/05/11 06:33:14;;;;;;;31.08;15.23;;;12.70;94.60;;;;;;5040825;28;20106;-75
2023/05/11 06:35:40;;;;;;;31.58;15.30;;;12.70;94.80;;;;;;5035223;28;20377;-76
2023/05/11 06:38:05;;;;;;;30.55;14.50;;;12.60;94.60;;;;;;5043527;28;20021;-76
2023/05/11 06:40:31;;;;;;;27.90;14.65;;;12.80;95.20;;;;;;5051564;28;20029;-75
2023/05/11 06:42:56;;;;;;;30.65;15.23;;;13.00;95.20;;;;;;5043912;28;20033;-76
2023/05/11 06:45:22;;;;;;;29.02;15.45;;;13.10;95.10;;;;;;5040871;28;20063;-75
2023/05/11 06:47:47;;;;;;;28.60;14.18;;;13.20;94.70;;;;;;5051163;28;20028;-76
2023/05/11 06:50:13;;;;;;;29.70;14.73;;;13.10;94.10;;;;;;5053421;28;20047;-75
2023/05/11 06:52:38;;;;;;;28.70;14.27;;;13.00;93.90;;;;;;5045957;28;20384;-75
2023/05/11 06:55:04;;;;;;;29.77;15.15;;;13.10;94.10;;;;;;5062196;28;20037;-75
2023/05/11 06:57:30;;;;;;;24.65;14.23;;;13.00;94.20;;;;;;5048921;28;20028;-76
2023/05/11 06:59:55;;;;;;;30.75;15.57;;;13.00;94.00;;;;;;5048175;28;20063;-77
2023/05/11 07:02:21;;;;;;;31.05;15.60;;;13.10;94.10;;;;;;5046594;28;20373;-77
2023/05/11 07:04:46;;;;;;;30.25;15.13;;;13.10;93.90;;;;;;5046246;28;20091;-77
2023/05/11 07:07:12;;;;;;;28.35;13.75;;;13.10;94.10;;;;;;5042689;28;20350;-76
2023/05/11 07:09:37;;;;;;;27.33;13.93;;;13.20;94.20;;;;;;5041860;28;20037;-76
2023/05/11 07:12:03;;;;;;;30.88;14.88;;;13.10;93.70;;;;;;5046066;28;20072;-76
2023/05/11 07:14:29;;;;;;;29.00;15.02;;;13.20;93.90;;;;;;5049998;28;20033;-76
2023/05/11 07:16:54;;;;;;;27.33;14.82;;;13.20;93.60;;;;;;5038199;28;20052;-76
2023/05/11 07:19:19;;;;;;;27.52;14.38;;;13.10;94.10;;;;;;5037401;28;20525;-76
2023/05/11 07:21:45;;;;;;;32.15;16.52;;;13.20;94.10;;;;;;5040024;28;20113;-76
2023/05/11 07:24:10;;;;;;;29.20;15.32;;;13.30;94.20;;;;;;5051162;28;20043;-76
2023/05/11 07:26:36;;;;;;;29.33;14.65;;;13.40;93.90;;;;;;5041904;28;20116;-75
2023/05/11 07:29:01;;;;;;;28.55;15.32;;;13.40;93.40;;;;;;5043835;28;20215;-76
2023/05/11 07:31:28;;;;;;;26.80;15.38;;;13.30;93.70;;;;;;5048667;28;20025;-76
2023/05/11 07:33:54;;;;;;;30.77;15.18;;;13.60;93.50;;;;;;5043858;28;20067;-76
2023/05/11 07:36:20;;;;;;;24.98;13.05;;;13.70;93.40;;;;;;5049793;28;20033;-76
2023/05/11 07:38:49;;;;;;;25.70;13.55;;;13.60;92.90;;;;;;5046825;28;20017;-76
2023/05/11 07:41:14;;;;;;;24.38;13.45;;;13.60;92.80;;;;;;5045105;28;20059;-76
2023/05/11 07:43:40;;;;;;;24.00;13.45;;;13.80;93.70;;;;;;5047092;28;20416;-76
2023/05/11 07:46:06;;;;;;;24.05;13.20;;;13.80;93.50;;;;;;5052695;28;20342;-76
2023/05/11 07:48:31;;;;;;;21.35;12.20;;;14.00;93.40;;;;;;5046480;28;20025;-76
2023/05/11 07:50:57;;;;;;;24.35;12.77;;;13.80;92.80;;;;;;5045895;28;20029;-76
2023/05/11 07:53:22;;;;;;;20.85;12.48;;;14.00;93.50;;;;;;5047498;28;20372;-76
2023/05/11 07:55:48;;;;;;;24.52;12.85;;;14.00;92.90;;;;;;5046419;28;20064;-75
2023/05/11 07:58:14;;;;;;;23.48;12.82;;;14.00;93.10;;;;;;5048071;28;20033;-76
2023/05/11 08:00:39;;;;;;;20.92;12.98;;;14.00;92.90;;;;;;5046519;28;20861;-75
2023/05/11 08:03:05;;;;;;;21.05;13.48;;;14.00;92.60;;;;;;5058987;28;20036;-75
2023/05/11 08:05:36;;;;;;;19.50;11.90;;;14.00;92.30;;;;;;5047751;28;21005;-76
2023/05/11 08:08:02;;;;;;;22.17;12.73;;;14.10;93.20;;;;;;5041706;28;20022;-76
2023/05/11 08:10:28;;;;;;;20.98;11.63;;;14.10;92.80;;;;;;5053061;28;20033;-76
2023/05/11 08:12:53;;;;;;;19.73;11.57;;;14.20;92.80;;;;;;5048811;28;20476;-76
2023/05/11 08:15:19;;;;;;;18.83;11.07;;;14.20;92.70;;;;;;5046329;28;20166;-76
2023/05/11 08:17:45;;;;;;;20.40;11.30;;;14.30;92.90;;;;;;5052295;28;20026;-76
2023/05/11 08:20:11;;;;;;;19.15;10.73;;;14.40;92.80;;;;;;5048335;28;20036;-76
2023/05/11 08:22:37;;;;;;;19.52;11.70;;;14.30;92.00;;;;;;5046839;28;20070;-76
2023/05/11 08:25:02;;;;;;;20.35;12.05;;;14.40;92.50;;;;;;5044198;28;20393;-77
2023/05/11 08:27:28;;;;;;;19.25;11.10;;;14.30;91.80;;;;;;5051336;28;20041;-77
2023/05/11 08:29:54;;;;;;;21.02;11.65;;;14.20;92.00;;;;;;5048657;28;20037;-78
2023/05/11 08:32:20;;;;;;;22.67;11.65;;;14.30;92.90;;;;;;5056188;28;20052;-77
2023/05/11 08:34:45;;;;;;;21.90;12.23;;;14.20;92.50;;;;;;5053230;28;20029;-77
2023/05/11 08:37:11;;;;;;;22.48;12.60;;;14.40;93.00;;;;;;5045710;28;20106;-77
2023/05/11 08:39:36;;;;;;;20.55;12.13;;;14.40;92.20;;;;;;5053767;28;20033;-78
2023/05/11 08:42:04;;;;;;;20.95;11.57;;;14.50;92.00;;;;;;5051869;28;20029;-77
2023/05/11 08:44:32;;;;;;;19.67;12.05;;;14.50;91.80;;;;;;5053603;28;20033;-77
2023/05/11 08:46:59;;;;;;;24.67;13.63;;;14.20;92.60;;;;;;5051399;28;20455;-77
2023/05/11 08:49:25;;;;;;;22.65;13.55;;;14.20;92.20;;;;;;5053849;28;20087;-77
2023/05/11 08:51:50;;;;;;;24.63;13.38;;;14.20;92.90;;;;;;5052678;28;20104;-77
2023/05/11 08:54:16;;;;;;;26.58;14.45;;;14.20;92.80;;;;;;5053362;28;20417;-77
2023/05/11 08:56:42;;;;;;;26.30;15.82;;;14.30;92.90;;;;;;5052779;28;20037;-76
2023/05/11 08:59:08;;;;;;;26.38;15.18;;;14.10;92.30;;;;;;5049344;28;20487;-78
2023/05/11 09:01:35;;;;;;;26.42;16.17;;;14.10;92.80;;;;;;5044292;28;20071;-77
2023/05/11 09:04:02;;;;;;;31.35;16.27;;;14.00;92.70;;;;;;5042084;28;20575;-77
2023/05/11 09:06:29;;;;;;;23.30;14.50;;;14.40;94.10;;;;;;5051061;28;20025;-77
2023/05/11 09:08:56;;;;;;;23.10;13.45;;;14.20;92.20;;;;;;5052659;28;20057;-77
2023/05/11 09:11:23;;;;;;;23.52;13.90;;;14.10;92.90;;;;;;5054360;28;20029;-77
2023/05/11 09:13:49;;;;;;;22.13;13.05;;;14.00;92.60;;;;;;5052215;28;20033;-77
2023/05/11 09:16:15;;;;;;;20.52;12.85;;;14.10;93.10;;;;;;5052115;28;20033;-77
2023/05/11 09:18:51;;;;;;;20.52;12.32;;;14.10;92.20;;;;;;5048112;28;20025;-76
2023/05/11 09:21:19;;;;;;;22.15;12.75;;;14.10;92.40;;;;;;5045762;28;20044;-76
2023/05/11 09:23:48;;;;;;;20.30;11.75;;;14.30;93.70;;;;;;5058418;28;20029;-77
2023/05/11 09:26:15;;;;;;;21.08;12.50;;;14.20;92.50;;;;;;5053057;28;20021;-77
2023/05/11 09:28:53;;;;;;;19.70;11.90;;;14.40;93.40;;;;;;5048493;28;20116;-77
2023/05/11 09:31:45;;;;;;;19.50;12.07;;;14.40;93.00;;;;;;5052111;28;20036;-76
2023/05/11 09:34:21;;;;;;;19.92;12.50;;;14.60;92.90;;;;;;5045024;28;20733;-77
2023/05/11 09:36:49;;;;;;;22.70;14.82;;;14.70;92.70;;;;;;5049501;28;20083;-76
2023/05/11 09:39:15;;;;;;;22.17;15.30;;;14.70;92.90;;;;;;5058482;28;20020;-77
2023/05/11 09:41:41;;;;;;;22.55;15.05;;;14.70;92.10;;;;;;5053155;28;20033;-77
2023/05/11 09:44:11;;;;;;;23.38;15.40;;;15.00;93.30;;;;;;5051048;28;20021;-77
2023/05/11 09:46:37;;;;;;;24.55;17.02;;;15.30;93.10;;;;;;5058398;28;20028;-77
2023/05/11 09:49:03;;;;;;;25.33;16.52;;;15.20;91.70;;;;;;5048567;28;20033;-77
2023/05/11 09:51:31;;;;;;;25.77;17.45;;;15.50;92.10;;;;;;5057836;28;20035;-77
2023/05/11 09:53:58;;;;;;;26.80;17.48;;;15.50;92.80;;;;;;5053528;28;20517;-77
2023/05/11 09:56:48;;;;;;;24.20;17.45;;;15.70;93.10;;;;;;5052439;28;20365;-77
2023/05/11 09:59:35;;;;;;;27.13;17.88;;;15.60;91.70;;;;;;5049909;28;20112;-77
2023/05/11 10:02:20;;;;;;;25.45;18.35;;;15.40;90.50;;;;;;5047334;28;20029;-77
2023/05/11 10:04:47;;;;;;;26.48;18.70;;;15.30;91.70;;;;;;5050791;28;20488;-77
2023/05/11 10:07:25;;;;;;;28.30;19.83;;;15.50;92.60;;;;;;5044147;28;20040;-77
2023/05/11 10:09:56;;;;;;;24.92;18.73;;;15.40;92.20;;;;;;5049125;28;20416;-77
2023/05/11 10:12:23;;;;;;;27.55;18.70;;;15.30;92.60;;;;;;5070481;28;20029;-77
2023/05/11 10:14:50;;;;;;;26.42;17.95;;;15.10;90.90;;;;;;5056276;28;20067;-77
2023/05/11 10:17:17;;;;;;;27.10;19.23;;;15.00;92.20;;;;;;5047583;28;20029;-77
2023/05/11 10:19:42;;;;;;;25.23;19.10;;;15.00;93.10;;;;;;5050019;28;20029;-77
2023/05/11 10:22:09;;;;;;;27.88;19.90;;;14.80;92.90;;;;;;5061106;28;20075;-77
2023/05/11 10:24:35;;;;;;;28.20;19.67;;;14.60;93.30;;;;;;5056838;28;20373;-77
2023/05/11 10:27:02;;;;;;;28.73;19.08;;;14.60;94.00;;;;;;5066610;28;20028;-77
2023/05/11 10:29:29;;;;;;;29.25;20.27;;;14.60;94.60;;;;;;5048358;28;20033;-77
2023/05/11 10:31:56;;;;;;;29.25;20.63;;;14.60;94.90;;;;;;5053210;28;20048;-77
2023/05/11 10:34:23;;;;;;;30.92;20.63;;;14.60;94.70;;;;;;5043986;28;20325;-77
2023/05/11 10:36:51;;;;;;;31.23;22.33;;;14.60;94.90;;;;;;5045040;28;20029;-77
2023/05/11 10:39:17;;;;;;;30.63;21.48;;;14.80;95.30;;;;;;5050960;28;20487;-77
2023/05/11 10:41:50;;;;;;;30.13;21.27;;;14.70;94.90;;;;;;5046359;28;20121;-77
2023/05/11 10:44:43;;;;;;;29.98;21.13;;;14.70;94.90;;;;;;5054789;28;20075;-77
2023/05/11 10:48:04;;;;;;;28.80;19.65;;;14.80;95.10;;;;;;5047701;28;20032;-77
2023/05/11 10:50:39;;;;;;;27.30;19.13;;;14.70;95.10;;;;;;5028725;28;20469;-77
2023/05/11 10:53:36;;;;;;;26.83;18.80;;;14.80;95.30;;;;;;5042125;28;20369;-77
2023/05/11 10:56:11;;;;;;;25.33;18.70;;;14.80;94.80;;;;;;5044562;28;20028;-77
2023/05/11 10:58:43;;;;;;;20.67;15.23;;;15.00;95.20;;;;;;5048268;28;20774;-77
2023/05/11 11:01:18;;;;;;;23.35;16.75;;;15.00;94.50;;;;;;5045095;28;20048;-74
2023/05/11 11:03:58;;;;;;;22.20;15.93;;;15.10;94.70;;;;;;5047979;28;20120;-75
2023/05/11 11:06:24;;;;;;;22.77;16.60;;;15.20;95.00;;;;;;5054826;28;20404;-75
2023/05/11 11:08:57;;;;;;;21.77;16.52;;;15.00;94.70;;;;;;5048530;28;20343;-75
2023/05/11 11:11:31;;;;;;;23.80;16.40;;;15.10;94.90;;;;;;5047724;28;20028;-75
2023/05/11 11:14:03;;;;;;;23.42;16.90;;;15.20;94.80;;;;;;5060996;28;20071;-75
2023/05/11 11:16:29;;;;;;;21.48;16.13;;;15.30;94.70;;;;;;5055026;28;20021;-76
2023/05/11 11:19:46;;;;;;;23.70;16.67;;;15.30;94.40;;;;;;5047008;28;20078;-77
2023/05/11 11:22:33;;;;;;;19.75;15.38;;;15.30;94.00;;;;;;5040626;28;20059;-77
2023/05/11 11:25:00;;;;;;;25.85;16.40;;;15.30;93.50;;;;;;5051919;28;20060;-76
2023/05/11 11:27:40;;;;;;;19.67;15.65;;;15.50;94.30;;;;;;5052046;28;20044;-76
2023/05/11 11:30:21;;;;;;;19.48;15.15;;;15.70;93.50;;;;;;5060702;28;20483;-76
2023/05/11 11:33:14;;;;;;;19.45;14.48;;;16.00;93.50;;;;;;5042510;28;20035;-76
2023/05/11 11:35:42;;;;;;;18.77;13.88;;;15.90;92.20;;;;;;5041026;28;20029;-76
2023/05/11 11:38:10;;;;;;;17.90;13.25;;;16.20;93.30;;;;;;5050463;28;20036;-76
2023/05/11 11:40:40;;;;;;;15.35;12.45;;;16.50;93.10;;;;;;5049872;28;20012;-77
2023/05/11 11:43:16;;;;;;;14.87;11.33;;;16.50;92.10;;;;;;5062734;28;20122;-77
2023/05/11 11:45:58;;;;;;;16.65;11.20;;;16.30;90.40;;;;;;5055400;28;20021;-76
2023/05/11 11:48:39;;;;;;;13.70;10.95;;;16.50;92.00;;;;;;5052763;28;20033;-77
2023/05/11 11:51:05;;;;;;;13.55;11.00;;;16.70;91.30;;;;;;5051888;28;20408;-77
2023/05/11 11:53:37;;;;;;;11.73;9.32;;;16.60;90.60;;;;;;5055010;28;20021;-77
2023/05/11 11:56:12;;;;;;;11.07;9.82;;;16.60;90.00;;;;;;5048798;28;20032;-77
2023/05/11 11:58:41;;;;;;;11.82;9.93;;;16.50;89.60;;;;;;5054256;28;20025;-77
2023/05/11 12:01:14;;;;;;;13.20;10.63;;;16.60;91.30;;;;;;5051596;28;20082;-76
2023/05/11 12:03:43;;;;;;;12.85;10.10;;;16.30;90.50;;;;;;5052505;28;20071;-76
2023/05/11 12:06:10;;;;;;;15.30;10.60;;;16.30;90.00;;;;;;5051149;28;20041;-76
2023/05/11 12:08:37;;;;;;;15.30;11.20;;;16.40;90.60;;;;;;5055903;28;20062;-76
2023/05/11 12:11:04;;;;;;;12.63;10.38;;;16.40;90.50;;;;;;5050338;28;20025;-76
2023/05/11 12:13:30;;;;;;;13.23;11.13;;;16.10;90.30;;;;;;5056939;28;20084;-76
2023/05/11 12:16:11;;;;;;;14.45;11.63;;;16.00;90.80;;;;;;5047521;28;20359;-76
2023/05/11 12:18:37;;;;;;;14.52;11.27;;;16.20;91.70;;;;;;5042268;28;20021;-76
2023/05/11 12:21:03;;;;;;;14.82;11.05;;;16.30;92.10;;;;;;5049193;28;20108;-76
2023/05/11 12:23:29;;;;;;;14.25;11.30;;;16.30;91.50;;;;;;5043458;28;20089;-77
2023/05/11 12:26:05;;;;;;;13.05;10.68;;;16.30;91.00;;;;;;5041484;28;20506;-80
2023/05/11 12:28:32;;;;;;;14.43;11.65;;;16.20;91.40;;;;;;5037554;28;20413;-79
2023/05/11 12:30:57;;;;;;;15.13;12.05;;;16.10;92.00;;;;;;5044903;28;20022;-78
2023/05/11 12:33:23;;;;;;;14.43;11.38;;;16.10;91.70;;;;;;5038460;28;20106;-77
2023/05/11 12:35:53;;;;;;;13.30;10.73;;;16.20;91.90;;;;;;5046044;28;20025;-76